Create Tblcommutelog Verified Points Advance Search
| # | Trip ID | Id Commuter | Trip Date | Trip Num | Current Lat | Current Lng | Delta Distance | Current Time | Activity | Activity Confidence | Current Speed | |
|---|---|---|---|---|---|---|---|---|---|---|---|---|
| 70961 | 250318_780278_16647958_1629 | 780278 | (not set) | (not set) | 38.896911514875 | -77.107900116547 | 3.6337 | 2025-03-18 21:23:02.769 | on_foot | 100 | -0.44703925898772 | |
| 70962 | 250318_767309_16634241_1617 | 767309 | (not set) | (not set) | 39.042558449676 | -77.167271427374 | 14.0812 | 2025-03-18 21:23:06.411 | on_foot | 100 | 0.72420359956011 | |
| 70963 | 250318_776960_16644495_1622 | 776960 | (not set) | (not set) | 39.293980272524 | -76.652462426644 | 36.9146 | 2025-03-18 21:23:06.421 | in_vehicle | 100 | 0 | |
| 70964 | 250318_769852_0_1620 | 769852 | (not set) | (not set) | 39.001885532739 | -77.180494733954 | 10.4648 | 2025-03-18 21:23:39.286 | in_vehicle | 100 | 0 | |
| 70965 | 250318_698742_16554557_1721 | 698742 | (not set) | (not set) | 38.869366721959 | -77.043275791584 | 1.4449 | 2025-03-18 21:24:02.199 | in_vehicle | 100 | 7.6041377953812 | |
| 70966 | 250318_761648_16628470_1706 | 761648 | (not set) | (not set) | 38.933945274828 | -76.982240133463 | 3.1809 | 2025-03-18 21:24:02.219 | on_bicycle | 100 | 4.0367645086592 | |
| 70967 | 250318_781408_16649086_1700 | 781408 | (not set) | (not set) | 38.885511897443 | -76.999545269715 | 0.7296 | 2025-03-18 21:24:04.106 | on_foot | 100 | 0.52303593301564 | |
| 70968 | 250318_775339_0_1651 | 775339 | (not set) | (not set) | 38.943756233353 | -77.287869366911 | 16.238 | 2025-03-18 21:24:04.258 | in_vehicle | 100 | 12.74061888115 | |
| 70969 | 250318_781336_16649009_1629 | 781336 | (not set) | (not set) | 38.906854866109 | -77.432891288844 | 29.4671 | 2025-03-18 21:24:04.937 | in_vehicle | 100 | 9.7141630978032 | |
| 70970 | 250318_777589_0_1721 | 777589 | (not set) | (not set) | 38.803588736818 | -77.138986876308 | 0.3839 | 2025-03-18 21:24:05.185 | in_vehicle | 100 | 6.5580659293499 | |
| 70971 | 250318_700311_16556333_1618 | 700311 | (not set) | (not set) | 38.666368600518 | -76.613442148861 | 30.0988 | 2025-03-18 21:24:05.212 | in_vehicle | 100 | 11.153629511744 | |
| 70972 | 250318_761201_16627990_1653 | 761201 | (not set) | (not set) | 38.861736853581 | -77.102442094182 | 5.4837 | 2025-03-18 21:24:51.824 | in_vehicle | 100 | -0.44703925898772 | |
| 70973 | 250318_705032_16561783_1717 | 705032 | (not set) | (not set) | 38.955317540078 | -76.969416168732 | 3.1525 | 2025-03-18 21:25:42.283 | in_vehicle | 100 | 0.031292748129141 | |
| 70974 | 250318_780745_16648422_1641 | 780745 | (not set) | (not set) | 38.991930002798 | -77.459793896824 | 27.2291 | 2025-03-18 21:25:42.476 | in_vehicle | 100 | 12.771911629279 | |
| 70975 | 250318_781336_16649009_1629 | 781336 | (not set) | (not set) | 38.931024335361 | -77.429747404603 | 31.1562 | 2025-03-18 21:25:42.607 | in_vehicle | 100 | 8.4177492467388 | |
| 70976 | 250318_776960_16644495_1622 | 776960 | (not set) | (not set) | 39.302402537358 | -76.642351398421 | 37.7758 | 2025-03-18 21:25:42.819 | in_vehicle | 100 | -0.44703925898772 | |
| 70977 | 250318_705032_16561783_1717 | 705032 | (not set) | (not set) | 38.955320314373 | -76.969415293865 | 3.1525 | 2025-03-18 21:25:43.154 | still | 33 | 0.026822355539263 | |
| 70978 | 250318_765177_16632089_1705 | 765177 | (not set) | (not set) | 39.640444188471 | -76.921187865943 | 6.3413 | 2025-03-18 21:25:45.656 | in_vehicle | 100 | 5.2750632560551 | |
| 70979 | 250318_766012_16632919_1707 | 766012 | (not set) | (not set) | 38.898019991027 | -77.023271517748 | 0.9145 | 2025-03-18 21:25:45.984 | still | 33 | -0.44703925898772 | |
| 70980 | 250318_769852_0_1620 | 769852 | (not set) | (not set) | 39.009894438359 | -77.196394693599 | 11.4867 | 2025-03-18 21:26:05.221 | in_vehicle | 100 | 7.6443713286901 |